sensor_id;sensor_type;location;lat;lon;timestamp;pressure;altitude;pressure_sealevel;temperature;humidity
56182;BME280;51963;46.052;14.544;2023-04-16T00:01:41;97729.66;;;5.58;100.00
56182;BME280;51963;46.052;14.544;2023-04-16T00:04:07;97736.69;;;5.57;100.00
56182;BME280;51963;46.052;14.544;2023-04-16T00:06:32;97745.88;;;5.53;100.00
56182;BME280;51963;46.052;14.544;2023-04-16T00:08:58;97742.75;;;5.58;100.00
56182;BME280;51963;46.052;14.544;2023-04-16T00:11:24;97746.28;;;5.73;100.00
56182;BME280;51963;46.052;14.544;2023-04-16T00:13:49;97738.56;;;5.72;100.00
56182;BME280;51963;46.052;14.544;2023-04-16T00:16:15;97745.84;;;5.93;100.00
56182;BME280;51963;46.052;14.544;2023-04-16T00:18:41;97729.56;;;5.75;100.00
56182;BME280;51963;46.052;14.544;2023-04-16T00:21:06;97745.03;;;5.93;100.00
56182;BME280;51963;46.052;14.544;2023-04-16T00:23:32;97745.22;;;5.91;100.00
56182;BME280;51963;46.052;14.544;2023-04-16T00:25:58;97743.38;;;5.68;100.00
56182;BME280;51963;46.052;14.544;2023-04-16T00:28:26;97739.16;;;5.59;100.00
56182;BME280;51963;46.052;14.544;2023-04-16T00:30:53;97742.28;;;5.54;100.00
56182;BME280;51963;46.052;14.544;2023-04-16T00:33:19;97746.97;;;5.67;100.00
56182;BME280;51963;46.052;14.544;2023-04-16T00:35:46;97738.72;;;5.79;100.00
56182;BME280;51963;46.052;14.544;2023-04-16T00:38:12;97719.03;;;5.83;100.00
56182;BME280;51963;46.052;14.544;2023-04-16T00:40:37;97742.69;;;5.75;100.00
56182;BME280;51963;46.052;14.544;2023-04-16T00:43:03;97732.91;;;5.60;100.00
56182;BME280;51963;46.052;14.544;2023-04-16T00:45:29;97739.94;;;5.60;100.00
56182;BME280;51963;46.052;14.544;2023-04-16T00:47:55;97737.03;;;5.54;100.00
56182;BME280;51963;46.052;14.544;2023-04-16T00:50:22;97720.69;;;5.44;100.00
56182;BME280;51963;46.052;14.544;2023-04-16T00:52:48;97745.41;;;5.50;100.00
56182;BME280;51963;46.052;14.544;2023-04-16T00:55:17;97748.69;;;5.52;100.00
56182;BME280;51963;46.052;14.544;2023-04-16T00:57:44;97750.34;;;5.76;100.00
56182;BME280;51963;46.052;14.544;2023-04-16T01:00:10;97745.59;;;5.80;100.00
56182;BME280;51963;46.052;14.544;2023-04-16T01:02:36;97751.88;;;5.70;100.00
56182;BME280;51963;46.052;14.544;2023-04-16T01:05:03;97735.88;;;5.57;100.00
56182;BME280;51963;46.052;14.544;2023-04-16T01:07:30;97745.69;;;5.63;100.00
56182;BME280;51963;46.052;14.544;2023-04-16T01:09:55;97743.44;;;5.52;100.00
56182;BME280;51963;46.052;14.544;2023-04-16T01:12:22;97744.44;;;5.51;100.00
56182;BME280;51963;46.052;14.544;2023-04-16T01:14:49;97739.84;;;5.53;100.00
56182;BME280;51963;46.052;14.544;2023-04-16T01:17:15;97749.03;;;5.49;100.00
56182;BME280;51963;46.052;14.544;2023-04-16T01:19:41;97742.81;;;5.41;100.00
56182;BME280;51963;46.052;14.544;2023-04-16T01:22:07;97757.91;;;5.39;100.00
56182;BME280;51963;46.052;14.544;2023-04-16T01:24:33;97748.53;;;5.45;100.00
56182;BME280;51963;46.052;14.544;2023-04-16T01:27:00;97749.06;;;5.40;100.00
56182;BME280;51963;46.052;14.544;2023-04-16T01:29:26;97755.25;;;5.48;100.00
56182;BME280;51963;46.052;14.544;2023-04-16T01:31:53;97730.09;;;5.30;100.00
56182;BME280;51963;46.052;14.544;2023-04-16T01:34:35;97755.59;;;5.45;100.00
56182;BME280;51963;46.052;14.544;2023-04-16T01:37:04;97749.38;;;5.46;100.00
56182;BME280;51963;46.052;14.544;2023-04-16T01:39:29;97743.09;;;5.55;100.00
56182;BME280;51963;46.052;14.544;2023-04-16T01:41:56;97751.47;;;5.50;100.00
56182;BME280;51963;46.052;14.544;2023-04-16T01:44:22;97744.13;;;5.46;100.00
56182;BME280;51963;46.052;14.544;2023-04-16T01:46:48;97755.91;;;5.50;100.00
56182;BME280;51963;46.052;14.544;2023-04-16T01:49:14;97753.41;;;5.56;100.00
56182;BME280;51963;46.052;14.544;2023-04-16T01:51:40;97727.75;;;5.43;100.00
56182;BME280;51963;46.052;14.544;2023-04-16T01:54:06;97753.28;;;5.81;100.00
56182;BME280;51963;46.052;14.544;2023-04-16T01:56:32;97735.53;;;5.60;100.00
56182;BME280;51963;46.052;14.544;2023-04-16T01:58:58;97751.56;;;5.65;100.00
56182;BME280;51963;46.052;14.544;2023-04-16T02:01:28;97737.81;;;5.63;100.00
56182;BME280;51963;46.052;14.544;2023-04-16T02:03:56;97745.47;;;5.73;100.00
56182;BME280;51963;46.052;14.544;2023-04-16T02:06:22;97718.63;;;5.63;100.00
56182;BME280;51963;46.052;14.544;2023-04-16T02:08:47;97758.41;;;5.75;100.00
56182;BME280;51963;46.052;14.544;2023-04-16T02:11:14;97770.81;;;5.89;100.00
56182;BME280;51963;46.052;14.544;2023-04-16T02:13:41;97772.75;;;5.55;100.00
56182;BME280;51963;46.052;14.544;2023-04-16T02:16:07;97774.06;;;5.51;100.00
56182;BME280;51963;46.052;14.544;2023-04-16T02:18:51;97777.91;;;5.40;100.00
56182;BME280;51963;46.052;14.544;2023-04-16T02:21:20;97779.88;;;5.38;100.00
56182;BME280;51963;46.052;14.544;2023-04-16T02:23:45;97777.56;;;5.27;100.00
56182;BME280;51963;46.052;14.544;2023-04-16T02:26:16;97781.84;;;5.36;100.00
56182;BME280;51963;46.052;14.544;2023-04-16T02:28:42;97781.19;;;5.34;100.00
56182;BME280;51963;46.052;14.544;2023-04-16T02:31:10;97780.84;;;5.29;100.00
56182;BME280;51963;46.052;14.544;2023-04-16T02:33:41;97781.84;;;5.28;100.00
56182;BME280;51963;46.052;14.544;2023-04-16T02:36:07;97776.63;;;5.20;100.00
56182;BME280;51963;46.052;14.544;2023-04-16T02:38:34;97786.09;;;5.29;100.00
56182;BME280;51963;46.052;14.544;2023-04-16T02:41:01;97763.88;;;5.08;100.00
56182;BME280;51963;46.052;14.544;2023-04-16T02:43:27;97784.13;;;5.23;100.00
56182;BME280;51963;46.052;14.544;2023-04-16T02:45:54;97795.94;;;5.19;100.00
56182;BME280;51963;46.052;14.544;2023-04-16T02:48:20;97791.06;;;4.99;100.00
56182;BME280;51963;46.052;14.544;2023-04-16T02:50:46;97793.31;;;5.27;100.00
56182;BME280;51963;46.052;14.544;2023-04-16T02:53:11;97797.25;;;5.23;100.00
56182;BME280;51963;46.052;14.544;2023-04-16T02:55:37;97794.66;;;5.06;100.00
56182;BME280;51963;46.052;14.544;2023-04-16T02:58:03;97799.56;;;5.18;100.00
56182;BME280;51963;46.052;14.544;2023-04-16T03:00:28;97760.50;;;4.83;100.00
56182;BME280;51963;46.052;14.544;2023-04-16T03:02:54;97805.13;;;5.14;100.00
56182;BME280;51963;46.052;14.544;2023-04-16T03:05:20;97789.94;;;5.02;100.00
56182;BME280;51963;46.052;14.544;2023-04-16T03:07:46;97789.63;;;4.96;100.00
56182;BME280;51963;46.052;14.544;2023-04-16T03:10:11;97792.22;;;4.96;100.00
56182;BME280;51963;46.052;14.544;2023-04-16T03:12:38;97798.94;;;4.99;100.00
56182;BME280;51963;46.052;14.544;2023-04-16T03:15:05;97797.94;;;5.00;100.00
56182;BME280;51963;46.052;14.544;2023-04-16T03:17:31;97802.38;;;4.99;100.00
56182;BME280;51963;46.052;14.544;2023-04-16T03:19:57;97801.22;;;5.02;100.00
56182;BME280;51963;46.052;14.544;2023-04-16T03:22:23;97790.94;;;4.92;100.00
56182;BME280;51963;46.052;14.544;2023-04-16T03:24:48;97793.03;;;4.97;100.00
56182;BME280;51963;46.052;14.544;2023-04-16T03:27:14;97784.38;;;4.96;100.00
56182;BME280;51963;46.052;14.544;2023-04-16T03:29:40;97799.25;;;5.04;100.00
56182;BME280;51963;46.052;14.544;2023-04-16T03:32:07;97803.63;;;5.37;100.00
56182;BME280;51963;46.052;14.544;2023-04-16T03:34:33;97805.06;;;5.48;100.00
56182;BME280;51963;46.052;14.544;2023-04-16T03:36:59;97815.88;;;5.53;100.00
56182;BME280;51963;46.052;14.544;2023-04-16T03:39:25;97807.06;;;5.21;100.00
56182;BME280;51963;46.052;14.544;2023-04-16T03:41:51;97782.41;;;4.98;100.00
56182;BME280;51963;46.052;14.544;2023-04-16T03:44:17;97812.00;;;5.16;100.00
56182;BME280;51963;46.052;14.544;2023-04-16T03:46:45;97819.69;;;5.34;100.00
56182;BME280;51963;46.052;14.544;2023-04-16T03:49:10;97827.81;;;5.55;100.00
56182;BME280;51963;46.052;14.544;2023-04-16T03:51:36;97815.91;;;5.45;100.00
56182;BME280;51963;46.052;14.544;2023-04-16T03:54:02;97829.69;;;5.38;100.00
56182;BME280;51963;46.052;14.544;2023-04-16T03:56:28;97810.19;;;5.24;100.00
56182;BME280;51963;46.052;14.544;2023-04-16T03:58:54;97831.16;;;5.24;100.00
56182;BME280;51963;46.052;14.544;2023-04-16T04:01:20;97822.66;;;5.14;100.00
56182;BME280;51963;46.052;14.544;2023-04-16T04:03:46;97838.41;;;5.06;100.00
56182;BME280;51963;46.052;14.544;2023-04-16T04:06:12;97843.47;;;5.07;100.00
56182;BME280;51963;46.052;14.544;2023-04-16T04:08:38;97849.69;;;5.14;100.00
56182;BME280;51963;46.052;14.544;2023-04-16T04:11:04;97844.75;;;5.28;100.00
56182;BME280;51963;46.052;14.544;2023-04-16T04:13:32;97849.34;;;5.34;100.00
56182;BME280;51963;46.052;14.544;2023-04-16T04:15:57;97852.09;;;5.41;100.00
56182;BME280;51963;46.052;14.544;2023-04-16T04:18:25;97856.97;;;5.61;100.00
56182;BME280;51963;46.052;14.544;2023-04-16T04:20:51;97855.84;;;5.63;100.00
56182;BME280;51963;46.052;14.544;2023-04-16T04:23:19;97855.78;;;5.80;100.00
56182;BME280;51963;46.052;14.544;2023-04-16T04:25:46;97858.38;;;5.88;100.00
56182;BME280;51963;46.052;14.544;2023-04-16T04:28:12;97853.03;;;5.65;100.00
56182;BME280;51963;46.052;14.544;2023-04-16T04:30:38;97852.88;;;5.66;100.00
56182;BME280;51963;46.052;14.544;2023-04-16T04:33:04;97851.56;;;5.62;100.00
56182;BME280;51963;46.052;14.544;2023-04-16T04:35:31;97856.84;;;5.54;100.00
56182;BME280;51963;46.052;14.544;2023-04-16T04:37:58;97813.75;;;5.48;100.00
56182;BME280;51963;46.052;14.544;2023-04-16T04:40:25;97849.25;;;5.76;100.00
56182;BME280;51963;46.052;14.544;2023-04-16T04:42:51;97861.38;;;5.77;100.00
56182;BME280;51963;46.052;14.544;2023-04-16T04:45:17;97875.72;;;5.97;100.00
56182;BME280;51963;46.052;14.544;2023-04-16T04:47:43;97878.13;;;5.67;100.00
56182;BME280;51963;46.052;14.544;2023-04-16T04:50:09;97866.78;;;5.67;100.00
56182;BME280;51963;46.052;14.544;2023-04-16T04:52:38;97867.28;;;5.70;100.00
56182;BME280;51963;46.052;14.544;2023-04-16T04:55:06;97877.47;;;5.65;100.00
56182;BME280;51963;46.052;14.544;2023-04-16T04:57:31;97883.53;;;5.57;100.00
56182;BME280;51963;46.052;14.544;2023-04-16T04:59:57;97884.63;;;5.80;100.00
56182;BME280;51963;46.052;14.544;2023-04-16T05:02:23;97891.16;;;5.92;100.00
56182;BME280;51963;46.052;14.544;2023-04-16T05:04:49;97901.97;;;5.97;100.00
56182;BME280;51963;46.052;14.544;2023-04-16T05:07:15;97890.28;;;6.08;100.00
56182;BME280;51963;46.052;14.544;2023-04-16T05:09:40;97891.47;;;6.06;100.00
56182;BME280;51963;46.052;14.544;2023-04-16T05:12:06;97896.38;;;6.09;100.00
56182;BME280;51963;46.052;14.544;2023-04-16T05:14:34;97907.91;;;5.83;100.00
56182;BME280;51963;46.052;14.544;2023-04-16T05:17:00;97874.88;;;5.49;100.00
56182;BME280;51963;46.052;14.544;2023-04-16T05:19:26;97902.75;;;5.50;100.00
56182;BME280;51963;46.052;14.544;2023-04-16T05:21:52;97905.03;;;5.45;100.00
56182;BME280;51963;46.052;14.544;2023-04-16T05:24:18;97907.66;;;5.53;100.00
56182;BME280;51963;46.052;14.544;2023-04-16T05:26:44;97910.28;;;5.53;100.00
56182;BME280;51963;46.052;14.544;2023-04-16T05:29:10;97919.25;;;5.58;100.00
56182;BME280;51963;46.052;14.544;2023-04-16T05:31:36;97923.38;;;5.53;100.00
56182;BME280;51963;46.052;14.544;2023-04-16T05:34:01;97908.47;;;5.45;100.00
56182;BME280;51963;46.052;14.544;2023-04-16T05:36:27;97935.97;;;5.57;100.00
56182;BME280;51963;46.052;14.544;2023-04-16T05:38:53;97924.81;;;5.64;100.00
56182;BME280;51963;46.052;14.544;2023-04-16T05:41:19;97922.06;;;5.65;100.00
56182;BME280;51963;46.052;14.544;2023-04-16T05:43:48;97925.44;;;5.82;100.00
56182;BME280;51963;46.052;14.544;2023-04-16T05:46:13;97910.59;;;5.58;100.00
56182;BME280;51963;46.052;14.544;2023-04-16T05:48:39;97922.03;;;5.73;100.00
56182;BME280;51963;46.052;14.544;2023-04-16T05:51:07;97915.78;;;5.83;100.00
56182;BME280;51963;46.052;14.544;2023-04-16T05:53:33;97942.94;;;6.15;100.00
56182;BME280;51963;46.052;14.544;2023-04-16T05:55:59;97939.28;;;6.24;100.00
56182;BME280;51963;46.052;14.544;2023-04-16T05:58:24;97935.50;;;6.27;100.00
56182;BME280;51963;46.052;14.544;2023-04-16T06:00:50;97941.00;;;6.00;100.00
56182;BME280;51963;46.052;14.544;2023-04-16T06:03:16;97927.56;;;5.87;100.00
56182;BME280;51963;46.052;14.544;2023-04-16T06:05:43;97944.75;;;6.06;100.00
56182;BME280;51963;46.052;14.544;2023-04-16T06:08:09;97939.84;;;6.03;100.00
56182;BME280;51963;46.052;14.544;2023-04-16T06:10:36;97946.28;;;5.84;100.00
56182;BME280;51963;46.052;14.544;2023-04-16T06:13:01;97951.50;;;6.00;100.00
56182;BME280;51963;46.052;14.544;2023-04-16T06:15:28;97940.41;;;5.73;100.00
56182;BME280;51963;46.052;14.544;2023-04-16T06:17:54;97938.22;;;6.02;100.00
56182;BME280;51963;46.052;14.544;2023-04-16T06:20:20;97949.91;;;6.31;100.00
56182;BME280;51963;46.052;14.544;2023-04-16T06:22:46;97957.19;;;6.60;100.00
56182;BME280;51963;46.052;14.544;2023-04-16T06:25:12;97954.50;;;6.69;100.00
56182;BME280;51963;46.052;14.544;2023-04-16T06:27:37;97956.91;;;6.47;100.00
56182;BME280;51963;46.052;14.544;2023-04-16T06:30:10;97959.16;;;6.58;100.00
56182;BME280;51963;46.052;14.544;2023-04-16T06:32:36;97936.50;;;6.57;100.00
56182;BME280;51963;46.052;14.544;2023-04-16T06:35:02;97947.97;;;6.88;100.00
56182;BME280;51963;46.052;14.544;2023-04-16T06:37:28;97953.19;;;6.96;100.00
56182;BME280;51963;46.052;14.544;2023-04-16T06:39:54;97957.38;;;7.05;100.00
56182;BME280;51963;46.052;14.544;2023-04-16T06:42:20;97939.69;;;6.99;100.00
56182;BME280;51963;46.052;14.544;2023-04-16T06:44:51;97956.03;;;7.10;100.00
56182;BME280;51963;46.052;14.544;2023-04-16T06:47:17;97961.53;;;7.23;100.00
56182;BME280;51963;46.052;14.544;2023-04-16T06:49:42;97950.06;;;7.39;100.00
56182;BME280;51963;46.052;14.544;2023-04-16T06:52:08;97936.63;;;7.34;100.00
56182;BME280;51963;46.052;14.544;2023-04-16T06:54:34;97954.75;;;7.29;100.00
56182;BME280;51963;46.052;14.544;2023-04-16T06:56:59;97963.28;;;7.31;100.00
56182;BME280;51963;46.052;14.544;2023-04-16T06:59:25;97962.88;;;7.42;100.00
56182;BME280;51963;46.052;14.544;2023-04-16T07:01:51;97963.38;;;7.61;100.00
56182;BME280;51963;46.052;14.544;2023-04-16T07:04:17;97975.09;;;7.73;100.00
56182;BME280;51963;46.052;14.544;2023-04-16T07:06:42;97965.25;;;7.52;100.00
56182;BME280;51963;46.052;14.544;2023-04-16T07:09:08;97957.50;;;7.89;100.00
56182;BME280;51963;46.052;14.544;2023-04-16T07:11:34;97968.59;;;8.14;100.00
56182;BME280;51963;46.052;14.544;2023-04-16T07:14:00;97970.22;;;8.30;100.00
56182;BME280;51963;46.052;14.544;2023-04-16T07:16:28;97976.13;;;8.32;100.00
56182;BME280;51963;46.052;14.544;2023-04-16T07:18:56;97976.84;;;8.26;100.00
56182;BME280;51963;46.052;14.544;2023-04-16T07:21:22;97979.28;;;8.43;100.00
56182;BME280;51963;46.052;14.544;2023-04-16T07:23:47;97980.66;;;8.39;100.00
56182;BME280;51963;46.052;14.544;2023-04-16T07:26:13;97981.56;;;8.16;100.00
56182;BME280;51963;46.052;14.544;2023-04-16T07:28:39;97976.50;;;8.44;100.00
56182;BME280;51963;46.052;14.544;2023-04-16T07:31:05;97983.47;;;8.67;100.00
56182;BME280;51963;46.052;14.544;2023-04-16T07:33:30;97988.59;;;8.90;100.00
56182;BME280;51963;46.052;14.544;2023-04-16T07:35:56;97989.47;;;8.98;100.00
56182;BME280;51963;46.052;14.544;2023-04-16T07:38:22;97990.16;;;8.85;100.00
56182;BME280;51963;46.052;14.544;2023-04-16T07:40:47;97988.94;;;9.02;100.00
56182;BME280;51963;46.052;14.544;2023-04-16T07:43:13;97994.84;;;9.26;100.00
56182;BME280;51963;46.052;14.544;2023-04-16T07:45:40;97997.88;;;9.23;100.00
56182;BME280;51963;46.052;14.544;2023-04-16T07:48:06;97997.63;;;9.18;100.00
56182;BME280;51963;46.052;14.544;2023-04-16T07:50:32;98003.16;;;8.86;100.00
56182;BME280;51963;46.052;14.544;2023-04-16T07:52:57;97998.25;;;8.83;100.00
56182;BME280;51963;46.052;14.544;2023-04-16T07:55:23;97986.31;;;9.02;100.00
56182;BME280;51963;46.052;14.544;2023-04-16T07:57:49;97999.53;;;9.09;100.00
56182;BME280;51963;46.052;14.544;2023-04-16T08:00:15;97999.00;;;9.14;100.00
56182;BME280;51963;46.052;14.544;2023-04-16T08:02:42;97988.94;;;9.24;100.00
56182;BME280;51963;46.052;14.544;2023-04-16T08:05:08;97974.41;;;9.35;100.00
56182;BME280;51963;46.052;14.544;2023-04-16T08:07:33;98011.47;;;9.48;100.00
56182;BME280;51963;46.052;14.544;2023-04-16T08:09:59;98007.59;;;9.44;100.00
56182;BME280;51963;46.052;14.544;2023-04-16T08:12:25;98008.91;;;9.83;100.00
56182;BME280;51963;46.052;14.544;2023-04-16T08:14:51;98005.13;;;10.21;100.00
56182;BME280;51963;46.052;14.544;2023-04-16T08:17:17;98012.91;;;10.30;100.00
56182;BME280;51963;46.052;14.544;2023-04-16T08:19:43;98007.72;;;10.43;100.00
56182;BME280;51963;46.052;14.544;2023-04-16T08:22:12;98014.19;;;10.76;100.00
56182;BME280;51963;46.052;14.544;2023-04-16T08:24:38;98001.44;;;10.99;100.00
56182;BME280;51963;46.052;14.544;2023-04-16T08:27:04;98012.84;;;11.07;100.00
56182;BME280;51963;46.052;14.544;2023-04-16T08:29:30;98012.28;;;11.18;100.00
56182;BME280;51963;46.052;14.544;2023-04-16T08:31:56;98007.41;;;11.42;100.00
56182;BME280;51963;46.052;14.544;2023-04-16T08:34:22;98022.91;;;11.72;99.26
56182;BME280;51963;46.052;14.544;2023-04-16T08:36:56;98008.88;;;11.65;99.02
56182;BME280;51963;46.052;14.544;2023-04-16T08:39:22;98009.69;;;11.72;98.17
56182;BME280;51963;46.052;14.544;2023-04-16T08:41:52;98016.59;;;12.27;98.71
56182;BME280;51963;46.052;14.544;2023-04-16T08:44:21;98013.66;;;12.49;94.77
56182;BME280;51963;46.052;14.544;2023-04-16T08:46:51;98014.34;;;12.24;94.86
56182;BME280;51963;46.052;14.544;2023-04-16T08:49:22;97995.97;;;12.29;94.73
56182;BME280;51963;46.052;14.544;2023-04-16T08:51:50;98017.25;;;12.74;90.83
56182;BME280;51963;46.052;14.544;2023-04-16T08:54:38;98018.41;;;13.31;88.23
56182;BME280;51963;46.052;14.544;2023-04-16T08:57:09;98023.13;;;13.29;86.65
56182;BME280;51963;46.052;14.544;2023-04-16T08:59:36;98031.31;;;13.20;88.62
56182;BME280;51963;46.052;14.544;2023-04-16T09:02:04;98023.50;;;13.64;86.73
56182;BME280;51963;46.052;14.544;2023-04-16T09:04:30;97997.31;;;13.43;86.95
56182;BME280;51963;46.052;14.544;2023-04-16T09:06:57;98026.41;;;13.24;86.87
56182;BME280;51963;46.052;14.544;2023-04-16T09:09:25;98002.75;;;13.55;84.10
56182;BME280;51963;46.052;14.544;2023-04-16T09:11:51;98021.06;;;13.31;82.98
56182;BME280;51963;46.052;14.544;2023-04-16T09:14:18;98025.78;;;13.61;80.93
56182;BME280;51963;46.052;14.544;2023-04-16T09:16:46;98005.63;;;12.75;82.97
56182;BME280;51963;46.052;14.544;2023-04-16T09:19:15;98022.94;;;12.78;81.60
56182;BME280;51963;46.052;14.544;2023-04-16T09:21:44;98025.13;;;13.33;78.37
56182;BME280;51963;46.052;14.544;2023-04-16T09:24:11;98024.06;;;13.02;77.44
56182;BME280;51963;46.052;14.544;2023-04-16T09:26:40;98016.16;;;12.89;77.61
56182;BME280;51963;46.052;14.544;2023-04-16T09:29:07;98003.69;;;12.96;76.61
56182;BME280;51963;46.052;14.544;2023-04-16T09:31:33;98011.28;;;12.86;76.29
56182;BME280;51963;46.052;14.544;2023-04-16T09:34:08;97998.06;;;12.72;76.97
56182;BME280;51963;46.052;14.544;2023-04-16T09:36:38;97985.47;;;13.00;76.01
56182;BME280;51963;46.052;14.544;2023-04-16T09:39:03;98014.34;;;13.60;73.96
56182;BME280;51963;46.052;14.544;2023-04-16T09:41:31;98009.72;;;13.49;73.58
56182;BME280;51963;46.052;14.544;2023-04-16T09:43:59;98006.09;;;13.37;73.68
56182;BME280;51963;46.052;14.544;2023-04-16T09:46:29;97997.97;;;13.31;73.71
56182;BME280;51963;46.052;14.544;2023-04-16T09:48:56;98018.94;;;13.40;72.54
56182;BME280;51963;46.052;14.544;2023-04-16T09:51:22;97996.91;;;13.39;74.53
56182;BME280;51963;46.052;14.544;2023-04-16T09:53:51;98016.94;;;13.92;71.98
56182;BME280;51963;46.052;14.544;2023-04-16T09:56:22;98015.88;;;13.49;72.67
56182;BME280;51963;46.052;14.544;2023-04-16T09:58:48;98009.00;;;14.11;70.99
56182;BME280;51963;46.052;14.544;2023-04-16T10:01:16;98017.38;;;13.89;69.72
56182;BME280;51963;46.052;14.544;2023-04-16T10:03:48;98008.78;;;14.13;66.51
56182;BME280;51963;46.052;14.544;2023-04-16T10:06:19;98007.78;;;13.63;69.42
56182;BME280;51963;46.052;14.544;2023-04-16T10:08:49;97999.06;;;13.81;67.83
56182;BME280;51963;46.052;14.544;2023-04-16T10:11:21;97981.78;;;13.40;68.75
56182;BME280;51963;46.052;14.544;2023-04-16T10:13:46;97987.75;;;13.67;66.24
56182;BME280;51963;46.052;14.544;2023-04-16T10:16:16;97953.09;;;13.23;66.36
56182;BME280;51963;46.052;14.544;2023-04-16T10:18:43;97991.38;;;13.47;66.84
56182;BME280;51963;46.052;14.544;2023-04-16T10:21:10;97978.53;;;13.88;65.09
56182;BME280;51963;46.052;14.544;2023-04-16T10:23:38;97988.63;;;14.23;63.19
56182;BME280;51963;46.052;14.544;2023-04-16T10:26:09;97987.91;;;14.72;60.91
56182;BME280;51963;46.052;14.544;2023-04-16T10:28:45;97988.63;;;14.79;60.11
56182;BME280;51963;46.052;14.544;2023-04-16T10:31:11;97986.31;;;15.02;60.06
56182;BME280;51963;46.052;14.544;2023-04-16T10:33:57;97981.38;;;14.68;58.26
56182;BME280;51963;46.052;14.544;2023-04-16T10:36:27;97979.44;;;14.94;59.10
56182;BME280;51963;46.052;14.544;2023-04-16T10:38:58;97974.50;;;15.52;56.48
56182;BME280;51963;46.052;14.544;2023-04-16T10:41:25;97985.81;;;15.35;56.67
56182;BME280;51963;46.052;14.544;2023-04-16T10:43:51;97984.84;;;15.18;56.47
56182;BME280;51963;46.052;14.544;2023-04-16T10:46:26;97969.25;;;14.91;57.98
56182;BME280;51963;46.052;14.544;2023-04-16T10:49:24;97985.59;;;15.37;57.13
56182;BME280;51963;46.052;14.544;2023-04-16T10:51:55;97973.59;;;15.16;54.91
56182;BME280;51963;46.052;14.544;2023-04-16T10:54:29;97946.13;;;15.03;55.36
56182;BME280;51963;46.052;14.544;2023-04-16T10:56:58;97969.06;;;15.04;56.79
56182;BME280;51963;46.052;14.544;2023-04-16T10:59:29;97968.72;;;15.55;55.61
56182;BME280;51963;46.052;14.544;2023-04-16T11:01:58;97968.28;;;15.70;54.51
56182;BME280;51963;46.052;14.544;2023-04-16T11:04:31;97968.91;;;16.61;54.04
56182;BME280;51963;46.052;14.544;2023-04-16T11:07:17;97968.25;;;16.53;52.59
56182;BME280;51963;46.052;14.544;2023-04-16T11:12:16;97962.53;;;16.50;51.84
56182;BME280;51963;46.052;14.544;2023-04-16T11:14:50;97940.94;;;16.22;52.11
56182;BME280;51963;46.052;14.544;2023-04-16T11:17:17;97970.28;;;16.92;51.02
56182;BME280;51963;46.052;14.544;2023-04-16T11:19:43;97965.66;;;16.59;52.02
56182;BME280;51963;46.052;14.544;2023-04-16T11:22:11;97953.09;;;16.30;50.49
56182;BME280;51963;46.052;14.544;2023-04-16T11:24:38;97956.88;;;16.46;50.88
56182;BME280;51963;46.052;14.544;2023-04-16T11:27:08;97959.88;;;17.20;48.83
56182;BME280;51963;46.052;14.544;2023-04-16T11:29:39;97953.47;;;16.63;50.14
56182;BME280;51963;46.052;14.544;2023-04-16T11:32:06;97958.56;;;18.08;45.69
56182;BME280;51963;46.052;14.544;2023-04-16T11:34:31;97967.28;;;18.20;46.70
56182;BME280;51963;46.052;14.544;2023-04-16T11:36:57;97950.88;;;18.33;43.57
56182;BME280;51963;46.052;14.544;2023-04-16T11:39:23;97942.91;;;18.39;43.56
56182;BME280;51963;46.052;14.544;2023-04-16T11:41:50;97956.28;;;17.14;46.11
56182;BME280;51963;46.052;14.544;2023-04-16T11:44:23;97940.22;;;17.26;46.20
56182;BME280;51963;46.052;14.544;2023-04-16T11:46:52;97956.97;;;17.55;45.00
56182;BME280;51963;46.052;14.544;2023-04-16T11:49:30;97963.66;;;17.92;45.66
56182;BME280;51963;46.052;14.544;2023-04-16T11:51:57;97953.59;;;16.85;45.77
56182;BME280;51963;46.052;14.544;2023-04-16T11:54:24;97956.94;;;16.22;48.36
56182;BME280;51963;46.052;14.544;2023-04-16T11:56:52;97963.31;;;16.21;48.59
56182;BME280;51963;46.052;14.544;2023-04-16T11:59:22;97963.88;;;16.23;48.15
56182;BME280;51963;46.052;14.544;2023-04-16T12:01:54;97956.22;;;16.27;48.29
56182;BME280;51963;46.052;14.544;2023-04-16T12:04:24;97934.69;;;16.57;47.36
56182;BME280;51963;46.052;14.544;2023-04-16T12:10:06;97949.69;;;17.51;44.88
56182;BME280;51963;46.052;14.544;2023-04-16T12:12:32;97955.53;;;16.32;46.11
56182;BME280;51963;46.052;14.544;2023-04-16T12:15:00;97940.19;;;16.39;47.61
56182;BME280;51963;46.052;14.544;2023-04-16T12:17:29;97940.78;;;16.41;47.14
56182;BME280;51963;46.052;14.544;2023-04-16T12:20:02;97950.91;;;16.68;46.87
56182;BME280;51963;46.052;14.544;2023-04-16T12:22:32;97956.78;;;16.41;47.72
56182;BME280;51963;46.052;14.544;2023-04-16T12:25:01;97959.59;;;16.22;47.93
56182;BME280;51963;46.052;14.544;2023-04-16T12:30:14;97940.22;;;15.67;49.42
56182;BME280;51963;46.052;14.544;2023-04-16T12:32:41;97955.50;;;15.48;50.82
56182;BME280;51963;46.052;14.544;2023-04-16T12:35:07;97943.31;;;15.29;50.19
56182;BME280;51963;46.052;14.544;2023-04-16T12:37:34;97953.34;;;15.93;49.75
56182;BME280;51963;46.052;14.544;2023-04-16T12:40:00;97949.34;;;15.36;54.78
56182;BME280;51963;46.052;14.544;2023-04-16T12:42:26;97952.81;;;15.36;56.51
56182;BME280;51963;46.052;14.544;2023-04-16T12:44:52;97951.56;;;15.51;58.07
56182;BME280;51963;46.052;14.544;2023-04-16T12:47:18;97958.28;;;15.65;58.35
56182;BME280;51963;46.052;14.544;2023-04-16T12:49:44;97963.09;;;15.21;59.68
56182;BME280;51963;46.052;14.544;2023-04-16T12:52:13;97951.19;;;14.93;60.82
56182;BME280;51963;46.052;14.544;2023-04-16T12:54:39;97929.19;;;14.86;61.80
56182;BME280;51963;46.052;14.544;2023-04-16T12:57:05;97932.91;;;15.75;60.77
56182;BME280;51963;46.052;14.544;2023-04-16T12:59:31;97943.00;;;15.73;58.38